sensor_id;sensor_type;location;lat;lon;timestamp;pressure;altitude;pressure_sealevel;temperature;humidity
31911;BME280;18457;52.432;16.914;2022-12-07T00:02:23;99972.21;;;3.35;100.00
31911;BME280;18457;52.432;16.914;2022-12-07T00:04:55;99969.15;;;3.48;100.00
31911;BME280;18457;52.432;16.914;2022-12-07T00:07:26;99970.59;;;3.34;100.00
31911;BME280;18457;52.432;16.914;2022-12-07T00:09:58;99971.29;;;3.41;100.00
31911;BME280;18457;52.432;16.914;2022-12-07T00:12:30;99970.59;;;3.37;100.00
31911;BME280;18457;52.432;16.914;2022-12-07T00:15:02;99973.27;;;3.38;100.00
31911;BME280;18457;52.432;16.914;2022-12-07T00:17:34;99973.42;;;3.50;100.00
31911;BME280;18457;52.432;16.914;2022-12-07T00:20:08;99970.35;;;3.60;100.00
31911;BME280;18457;52.432;16.914;2022-12-07T00:22:39;99966.27;;;3.48;100.00
31911;BME280;18457;52.432;16.914;2022-12-07T00:25:11;99971.46;;;3.47;100.00
31911;BME280;18457;52.432;16.914;2022-12-07T00:27:43;99967.89;;;3.48;100.00
31911;BME280;18457;52.432;16.914;2022-12-07T00:30:15;99963.25;;;3.44;100.00
31911;BME280;18457;52.432;16.914;2022-12-07T00:32:48;99962.36;;;3.42;100.00
31911;BME280;18457;52.432;16.914;2022-12-07T00:35:20;99962.19;;;3.45;100.00
31911;BME280;18457;52.432;16.914;2022-12-07T00:37:52;99961.44;;;3.52;100.00
31911;BME280;18457;52.432;16.914;2022-12-07T00:40:23;99956.60;;;3.57;100.00
31911;BME280;18457;52.432;16.914;2022-12-07T00:42:55;99955.93;;;3.47;100.00
31911;BME280;18457;52.432;16.914;2022-12-07T00:45:27;99953.95;;;3.50;100.00
31911;BME280;18457;52.432;16.914;2022-12-07T00:47:58;99954.83;;;3.56;100.00
31911;BME280;18457;52.432;16.914;2022-12-07T00:50:30;99950.20;;;3.51;100.00
31911;BME280;18457;52.432;16.914;2022-12-07T00:53:02;99950.02;;;3.54;100.00
31911;BME280;18457;52.432;16.914;2022-12-07T00:55:35;99949.67;;;3.49;100.00
31911;BME280;18457;52.432;16.914;2022-12-07T00:58:08;99950.05;;;3.46;100.00
31911;BME280;18457;52.432;16.914;2022-12-07T01:00:41;99952.88;;;3.53;100.00
31911;BME280;18457;52.432;16.914;2022-12-07T01:03:15;99951.80;;;3.52;100.00
31911;BME280;18457;52.432;16.914;2022-12-07T01:05:54;99944.30;;;3.54;100.00
31911;BME280;18457;52.432;16.914;2022-12-07T01:08:28;99949.13;;;3.51;100.00
31911;BME280;18457;52.432;16.914;2022-12-07T01:11:01;99943.05;;;3.53;100.00
31911;BME280;18457;52.432;16.914;2022-12-07T01:13:35;99947.86;;;3.61;100.00
31911;BME280;18457;52.432;16.914;2022-12-07T01:16:08;99945.36;;;3.58;100.00
31911;BME280;18457;52.432;16.914;2022-12-07T01:18:40;99945.34;;;3.62;100.00
31911;BME280;18457;52.432;16.914;2022-12-07T01:21:13;99944.10;;;3.59;100.00
31911;BME280;18457;52.432;16.914;2022-12-07T01:23:46;99940.89;;;3.60;100.00
31911;BME280;18457;52.432;16.914;2022-12-07T01:26:20;99939.48;;;3.56;100.00
31911;BME280;18457;52.432;16.914;2022-12-07T01:28:53;99937.28;;;3.66;100.00
31911;BME280;18457;52.432;16.914;2022-12-07T01:31:27;99932.80;;;3.74;100.00
31911;BME280;18457;52.432;16.914;2022-12-07T01:34:00;99935.48;;;3.70;100.00
31911;BME280;18457;52.432;16.914;2022-12-07T01:36:34;99935.85;;;3.67;100.00
31911;BME280;18457;52.432;16.914;2022-12-07T01:39:08;99935.50;;;3.67;100.00
31911;BME280;18457;52.432;16.914;2022-12-07T01:41:41;99934.59;;;3.70;100.00
31911;BME280;18457;52.432;16.914;2022-12-07T01:44:17;99937.30;;;3.65;100.00
31911;BME280;18457;52.432;16.914;2022-12-07T01:46:50;99938.00;;;3.69;100.00
31911;BME280;18457;52.432;16.914;2022-12-07T01:49:30;99939.94;;;3.73;100.00
31911;BME280;18457;52.432;16.914;2022-12-07T01:52:10;99933.15;;;3.74;100.00
31911;BME280;18457;52.432;16.914;2022-12-07T01:54:45;99927.79;;;3.76;100.00
31911;BME280;18457;52.432;16.914;2022-12-07T01:57:19;99923.15;;;3.73;100.00
31911;BME280;18457;52.432;16.914;2022-12-07T01:59:53;99920.82;;;3.75;100.00
31911;BME280;18457;52.432;16.914;2022-12-07T02:02:28;99917.61;;;3.73;100.00
31911;BME280;18457;52.432;16.914;2022-12-07T02:05:05;99918.64;;;3.82;100.00
31911;BME280;18457;52.432;16.914;2022-12-07T02:07:39;99912.73;;;3.86;100.00
31911;BME280;18457;52.432;16.914;2022-12-07T02:10:16;99917.17;;;3.91;100.00
31911;BME280;18457;52.432;16.914;2022-12-07T02:12:51;99912.03;;;3.83;100.00
31911;BME280;18457;52.432;16.914;2022-12-07T02:15:29;99916.84;;;3.85;100.00
31911;BME280;18457;52.432;16.914;2022-12-07T02:18:09;99917.00;;;3.91;100.00
31911;BME280;18457;52.432;16.914;2022-12-07T02:20:53;99912.94;;;3.81;100.00
31911;BME280;18457;52.432;16.914;2022-12-07T02:23:42;99915.04;;;3.87;100.00
31911;BME280;18457;52.432;16.914;2022-12-07T02:26:37;99912.91;;;3.86;100.00
31911;BME280;18457;52.432;16.914;2022-12-07T02:29:20;99903.08;;;3.87;100.00
31911;BME280;18457;52.432;16.914;2022-12-07T02:31:59;99896.80;;;3.91;100.00
31911;BME280;18457;52.432;16.914;2022-12-07T02:34:44;99897.30;;;4.00;100.00
31911;BME280;18457;52.432;16.914;2022-12-07T02:37:29;99894.66;;;3.91;100.00
31911;BME280;18457;52.432;16.914;2022-12-07T02:40:09;99893.25;;;3.87;100.00
31911;BME280;18457;52.432;16.914;2022-12-07T02:42:45;99888.98;;;3.82;100.00
31911;BME280;18457;52.432;16.914;2022-12-07T02:45:21;99888.44;;;3.86;100.00
31911;BME280;18457;52.432;16.914;2022-12-07T02:47:57;99887.37;;;3.84;100.00
31911;BME280;18457;52.432;16.914;2022-12-07T02:50:30;99883.05;;;3.89;100.00
31911;BME280;18457;52.432;16.914;2022-12-07T02:53:03;99882.02;;;3.85;100.00
31911;BME280;18457;52.432;16.914;2022-12-07T02:55:38;99883.63;;;3.84;100.00
31911;BME280;18457;52.432;16.914;2022-12-07T02:58:26;99882.91;;;3.84;100.00
31911;BME280;18457;52.432;16.914;2022-12-07T03:01:14;99887.31;;;3.96;100.00
31911;BME280;18457;52.432;16.914;2022-12-07T03:03:57;99884.46;;;3.95;100.00
31911;BME280;18457;52.432;16.914;2022-12-07T03:06:34;99886.28;;;3.89;100.00
31911;BME280;18457;52.432;16.914;2022-12-07T03:09:13;99889.80;;;3.98;100.00
31911;BME280;18457;52.432;16.914;2022-12-07T03:11:50;99892.73;;;3.83;100.00
31911;BME280;18457;52.432;16.914;2022-12-07T03:14:28;99894.68;;;3.86;100.00
31911;BME280;18457;52.432;16.914;2022-12-07T03:17:05;99898.43;;;3.87;100.00
31911;BME280;18457;52.432;16.914;2022-12-07T03:19:40;99899.13;;;3.91;100.00
31911;BME280;18457;52.432;16.914;2022-12-07T03:22:14;99899.29;;;3.94;100.00
31911;BME280;18457;52.432;16.914;2022-12-07T03:24:49;99905.57;;;3.90;100.00
31911;BME280;18457;52.432;16.914;2022-12-07T03:27:24;99902.58;;;3.81;100.00
31911;BME280;18457;52.432;16.914;2022-12-07T03:30:00;99898.85;;;3.73;100.00
31911;BME280;18457;52.432;16.914;2022-12-07T03:32:37;99897.41;;;3.77;100.00
31911;BME280;18457;52.432;16.914;2022-12-07T03:35:14;99897.58;;;3.82;100.00
31911;BME280;18457;52.432;16.914;2022-12-07T03:37:53;99897.79;;;3.74;100.00
31911;BME280;18457;52.432;16.914;2022-12-07T03:40:32;99896.48;;;3.84;100.00
31911;BME280;18457;52.432;16.914;2022-12-07T03:43:07;99895.46;;;3.75;100.00
31911;BME280;18457;52.432;16.914;2022-12-07T03:45:41;99894.80;;;3.65;100.00
31911;BME280;18457;52.432;16.914;2022-12-07T03:48:22;99898.16;;;3.71;100.00
31911;BME280;18457;52.432;16.914;2022-12-07T03:50:59;99896.55;;;3.72;100.00
31911;BME280;18457;52.432;16.914;2022-12-07T03:53:36;99893.52;;;3.68;100.00
31911;BME280;18457;52.432;16.914;2022-12-07T03:56:12;99889.38;;;3.78;100.00
31911;BME280;18457;52.432;16.914;2022-12-07T03:58:44;99887.36;;;3.85;100.00
31911;BME280;18457;52.432;16.914;2022-12-07T04:01:17;99887.92;;;3.82;99.99
31911;BME280;18457;52.432;16.914;2022-12-07T04:03:49;99885.44;;;3.79;100.00
31911;BME280;18457;52.432;16.914;2022-12-07T04:06:20;99885.22;;;3.85;100.00
31911;BME280;18457;52.432;16.914;2022-12-07T04:08:52;99882.75;;;3.79;99.60
31911;BME280;18457;52.432;16.914;2022-12-07T04:11:24;99884.23;;;3.70;99.78
31911;BME280;18457;52.432;16.914;2022-12-07T04:13:56;99884.25;;;3.65;99.61
31911;BME280;18457;52.432;16.914;2022-12-07T04:16:48;99880.47;;;3.71;99.28
31911;BME280;18457;52.432;16.914;2022-12-07T04:19:22;99879.60;;;3.69;98.97
31911;BME280;18457;52.432;16.914;2022-12-07T04:21:55;99872.43;;;3.69;99.05
31911;BME280;18457;52.432;16.914;2022-12-07T04:24:29;99875.08;;;3.78;98.89
31911;BME280;18457;52.432;16.914;2022-12-07T04:27:00;99867.23;;;3.73;98.78
31911;BME280;18457;52.432;16.914;2022-12-07T04:29:32;99862.39;;;3.79;98.84
31911;BME280;18457;52.432;16.914;2022-12-07T04:32:04;99853.10;;;3.80;98.81
31911;BME280;18457;52.432;16.914;2022-12-07T04:34:36;99850.35;;;3.90;98.39
31911;BME280;18457;52.432;16.914;2022-12-07T04:37:08;99861.68;;;3.77;98.87
31911;BME280;18457;52.432;16.914;2022-12-07T04:39:40;99862.47;;;3.66;99.66
31911;BME280;18457;52.432;16.914;2022-12-07T04:42:12;99865.48;;;3.72;99.82
31911;BME280;18457;52.432;16.914;2022-12-07T04:44:44;99871.73;;;3.68;100.00
31911;BME280;18457;52.432;16.914;2022-12-07T04:47:16;99864.40;;;3.70;100.00
31911;BME280;18457;52.432;16.914;2022-12-07T04:49:47;99861.05;;;3.64;100.00
31911;BME280;18457;52.432;16.914;2022-12-07T04:52:19;99857.42;;;3.73;100.00
31911;BME280;18457;52.432;16.914;2022-12-07T04:54:51;99851.20;;;3.69;100.00
31911;BME280;18457;52.432;16.914;2022-12-07T04:57:23;99844.70;;;3.79;99.96
31911;BME280;18457;52.432;16.914;2022-12-07T04:59:55;99842.59;;;3.73;99.85
31911;BME280;18457;52.432;16.914;2022-12-07T05:02:27;99839.73;;;3.75;99.60
31911;BME280;18457;52.432;16.914;2022-12-07T05:04:59;99837.68;;;3.90;99.32
31911;BME280;18457;52.432;16.914;2022-12-07T05:07:30;99829.29;;;3.89;99.12
31911;BME280;18457;52.432;16.914;2022-12-07T05:10:03;99827.46;;;3.65;99.78
31911;BME280;18457;52.432;16.914;2022-12-07T05:12:35;99829.45;;;3.60;99.97
31911;BME280;18457;52.432;16.914;2022-12-07T05:15:07;99831.23;;;3.60;100.00
31911;BME280;18457;52.432;16.914;2022-12-07T05:17:39;99829.09;;;3.62;100.00
31911;BME280;18457;52.432;16.914;2022-12-07T05:20:12;99828.59;;;3.55;100.00
31911;BME280;18457;52.432;16.914;2022-12-07T05:22:44;99821.19;;;3.69;100.00
31911;BME280;18457;52.432;16.914;2022-12-07T05:25:16;99822.42;;;3.73;100.00
31911;BME280;18457;52.432;16.914;2022-12-07T05:27:48;99823.66;;;3.75;100.00
31911;BME280;18457;52.432;16.914;2022-12-07T05:30:19;99825.51;;;3.62;100.00
31911;BME280;18457;52.432;16.914;2022-12-07T05:32:51;99828.38;;;3.60;100.00
31911;BME280;18457;52.432;16.914;2022-12-07T05:35:23;99829.28;;;3.59;100.00
31911;BME280;18457;52.432;16.914;2022-12-07T05:37:55;99828.73;;;3.63;100.00
31911;BME280;18457;52.432;16.914;2022-12-07T05:40:27;99825.33;;;3.66;100.00
31911;BME280;18457;52.432;16.914;2022-12-07T05:42:59;99822.33;;;3.58;100.00
31911;BME280;18457;52.432;16.914;2022-12-07T05:45:34;99826.00;;;3.70;100.00
31911;BME280;18457;52.432;16.914;2022-12-07T05:48:06;99823.34;;;3.67;100.00
31911;BME280;18457;52.432;16.914;2022-12-07T05:50:38;99823.25;;;3.84;100.00
31911;BME280;18457;52.432;16.914;2022-12-07T05:53:10;99823.34;;;3.68;100.00
31911;BME280;18457;52.432;16.914;2022-12-07T05:55:42;99821.22;;;3.65;100.00
31911;BME280;18457;52.432;16.914;2022-12-07T05:58:14;99818.77;;;3.54;100.00
31911;BME280;18457;52.432;16.914;2022-12-07T06:01:03;99818.58;;;3.57;100.00
31911;BME280;18457;52.432;16.914;2022-12-07T06:03:35;99817.56;;;3.45;100.00
31911;BME280;18457;52.432;16.914;2022-12-07T06:06:07;99814.86;;;3.53;100.00
31911;BME280;18457;52.432;16.914;2022-12-07T06:08:38;99817.02;;;3.48;100.00
31911;BME280;18457;52.432;16.914;2022-12-07T06:11:10;99815.64;;;3.39;100.00
31911;BME280;18457;52.432;16.914;2022-12-07T06:14:00;99821.13;;;3.48;100.00
31911;BME280;18457;52.432;16.914;2022-12-07T06:16:32;99820.61;;;3.45;100.00
31911;BME280;18457;52.432;16.914;2022-12-07T06:19:04;99821.33;;;3.46;100.00
31911;BME280;18457;52.432;16.914;2022-12-07T06:21:35;99818.63;;;3.49;100.00
31911;BME280;18457;52.432;16.914;2022-12-07T06:24:08;99823.14;;;3.40;100.00
31911;BME280;18457;52.432;16.914;2022-12-07T06:26:40;99819.01;;;3.43;100.00
31911;BME280;18457;52.432;16.914;2022-12-07T06:29:12;99818.63;;;3.47;100.00
31911;BME280;18457;52.432;16.914;2022-12-07T06:31:44;99814.16;;;3.49;100.00
31911;BME280;18457;52.432;16.914;2022-12-07T06:34:18;99815.02;;;3.57;100.00
31911;BME280;18457;52.432;16.914;2022-12-07T06:36:50;99811.84;;;3.51;100.00
31911;BME280;18457;52.432;16.914;2022-12-07T06:39:25;99808.98;;;3.49;100.00
31911;BME280;18457;52.432;16.914;2022-12-07T06:41:58;99805.38;;;3.58;100.00
31911;BME280;18457;52.432;16.914;2022-12-07T06:44:30;99806.68;;;3.45;100.00
31911;BME280;18457;52.432;16.914;2022-12-07T06:47:02;99805.65;;;3.38;100.00
31911;BME280;18457;52.432;16.914;2022-12-07T06:49:55;99804.44;;;3.29;100.00
31911;BME280;18457;52.432;16.914;2022-12-07T06:52:32;99810.34;;;3.28;100.00
31911;BME280;18457;52.432;16.914;2022-12-07T06:55:03;99805.73;;;3.19;100.00
31911;BME280;18457;52.432;16.914;2022-12-07T06:57:35;99805.89;;;3.25;100.00
31911;BME280;18457;52.432;16.914;2022-12-07T07:00:09;99803.15;;;3.35;100.00
31911;BME280;18457;52.432;16.914;2022-12-07T07:02:48;99807.99;;;3.31;100.00
31911;BME280;18457;52.432;16.914;2022-12-07T07:05:19;99801.06;;;3.25;100.00
31911;BME280;18457;52.432;16.914;2022-12-07T07:07:50;99806.36;;;3.37;100.00
31911;BME280;18457;52.432;16.914;2022-12-07T07:10:42;99806.13;;;3.49;100.00
31911;BME280;18457;52.432;16.914;2022-12-07T07:13:14;99803.33;;;3.35;100.00
31911;BME280;18457;52.432;16.914;2022-12-07T07:15:45;99801.02;;;3.37;100.00
31911;BME280;18457;52.432;16.914;2022-12-07T07:18:17;99799.39;;;3.39;100.00
31911;BME280;18457;52.432;16.914;2022-12-07T07:20:49;99796.96;;;3.26;100.00
31911;BME280;18457;52.432;16.914;2022-12-07T07:23:21;99801.19;;;3.40;100.00
31911;BME280;18457;52.432;16.914;2022-12-07T07:25:53;99802.13;;;3.26;100.00
31911;BME280;18457;52.432;16.914;2022-12-07T07:28:27;99802.67;;;3.27;100.00
31911;BME280;18457;52.432;16.914;2022-12-07T07:30:59;99794.63;;;3.27;100.00
31911;BME280;18457;52.432;16.914;2022-12-07T07:33:31;99793.98;;;3.49;100.00
31911;BME280;18457;52.432;16.914;2022-12-07T07:36:03;99793.41;;;3.55;100.00
31911;BME280;18457;52.432;16.914;2022-12-07T07:38:35;99788.04;;;3.59;100.00
31911;BME280;18457;52.432;16.914;2022-12-07T07:41:07;99787.84;;;3.63;100.00
31911;BME280;18457;52.432;16.914;2022-12-07T07:43:39;99786.04;;;3.64;100.00
31911;BME280;18457;52.432;16.914;2022-12-07T07:46:12;99784.79;;;3.32;100.00
31911;BME280;18457;52.432;16.914;2022-12-07T07:48:42;99789.06;;;3.34;100.00
31911;BME280;18457;52.432;16.914;2022-12-07T07:51:14;99790.54;;;3.26;100.00
31911;BME280;18457;52.432;16.914;2022-12-07T07:53:46;99787.89;;;3.19;100.00
31911;BME280;18457;52.432;16.914;2022-12-07T07:56:18;99789.48;;;3.22;100.00
31911;BME280;18457;52.432;16.914;2022-12-07T07:58:53;99789.19;;;3.08;100.00
31911;BME280;18457;52.432;16.914;2022-12-07T08:01:24;99789.88;;;3.13;100.00
31911;BME280;18457;52.432;16.914;2022-12-07T08:03:56;99784.71;;;3.09;100.00
31911;BME280;18457;52.432;16.914;2022-12-07T08:06:28;99780.57;;;3.19;100.00
31911;BME280;18457;52.432;16.914;2022-12-07T08:09:02;99783.08;;;3.18;99.85
31911;BME280;18457;52.432;16.914;2022-12-07T08:11:36;99779.15;;;3.19;98.94
31911;BME280;18457;52.432;16.914;2022-12-07T08:14:08;99773.49;;;3.41;97.12
31911;BME280;18457;52.432;16.914;2022-12-07T08:16:41;99775.17;;;3.28;96.37
31911;BME280;18457;52.432;16.914;2022-12-07T08:19:14;99772.09;;;3.38;96.14
31911;BME280;18457;52.432;16.914;2022-12-07T08:21:46;99768.92;;;3.29;95.95
31911;BME280;18457;52.432;16.914;2022-12-07T08:24:18;99769.59;;;3.36;96.21
31911;BME280;18457;52.432;16.914;2022-12-07T08:26:50;99770.63;;;3.45;96.55
31911;BME280;18457;52.432;16.914;2022-12-07T08:29:22;99763.86;;;3.41;96.18
31911;BME280;18457;52.432;16.914;2022-12-07T08:31:53;99764.37;;;3.45;96.82
31911;BME280;18457;52.432;16.914;2022-12-07T08:34:25;99768.84;;;3.43;96.54
31911;BME280;18457;52.432;16.914;2022-12-07T08:36:57;99772.90;;;3.50;96.06
31911;BME280;18457;52.432;16.914;2022-12-07T08:39:28;99771.84;;;3.51;95.93
31911;BME280;18457;52.432;16.914;2022-12-07T08:42:02;99773.59;;;3.57;95.13
31911;BME280;18457;52.432;16.914;2022-12-07T08:44:33;99771.61;;;3.57;94.87
31911;BME280;18457;52.432;16.914;2022-12-07T08:47:08;99771.11;;;3.54;94.62
31911;BME280;18457;52.432;16.914;2022-12-07T08:49:43;99768.83;;;3.47;95.51
31911;BME280;18457;52.432;16.914;2022-12-07T08:52:19;99768.09;;;3.52;95.34
31911;BME280;18457;52.432;16.914;2022-12-07T08:54:50;99763.23;;;3.27;96.53
31911;BME280;18457;52.432;16.914;2022-12-07T08:57:22;99756.55;;;3.41;96.36
31911;BME280;18457;52.432;16.914;2022-12-07T08:59:54;99754.19;;;3.48;95.42
31911;BME280;18457;52.432;16.914;2022-12-07T09:02:26;99755.43;;;3.49;95.12
31911;BME280;18457;52.432;16.914;2022-12-07T09:04:57;99748.27;;;3.49;94.78
31911;BME280;18457;52.432;16.914;2022-12-07T09:07:31;99751.20;;;3.38;94.72
31911;BME280;18457;52.432;16.914;2022-12-07T09:10:05;99743.24;;;3.27;95.90
31911;BME280;18457;52.432;16.914;2022-12-07T09:12:37;99741.96;;;3.31;96.20
31911;BME280;18457;52.432;16.914;2022-12-07T09:15:09;99740.56;;;3.26;96.29
31911;BME280;18457;52.432;16.914;2022-12-07T09:17:40;99734.43;;;3.05;97.81
31911;BME280;18457;52.432;16.914;2022-12-07T09:20:13;99728.83;;;3.20;98.21
31911;BME280;18457;52.432;16.914;2022-12-07T09:22:45;99727.09;;;3.09;98.30
31911;BME280;18457;52.432;16.914;2022-12-07T09:25:17;99726.65;;;3.26;98.08
31911;BME280;18457;52.432;16.914;2022-12-07T09:27:51;99720.73;;;3.32;97.54
31911;BME280;18457;52.432;16.914;2022-12-07T09:30:27;99715.48;;;3.40;97.04
31911;BME280;18457;52.432;16.914;2022-12-07T09:32:59;99714.98;;;3.38;96.86
31911;BME280;18457;52.432;16.914;2022-12-07T09:35:32;99713.09;;;3.27;96.77
31911;BME280;18457;52.432;16.914;2022-12-07T09:38:03;99710.69;;;3.07;98.30
31911;BME280;18457;52.432;16.914;2022-12-07T09:40:35;99715.47;;;3.14;98.03
31911;BME280;18457;52.432;16.914;2022-12-07T09:43:14;99713.30;;;3.19;97.90
31911;BME280;18457;52.432;16.914;2022-12-07T09:45:48;99706.27;;;3.28;97.36
31911;BME280;18457;52.432;16.914;2022-12-07T09:48:25;99698.27;;;3.26;97.07
31911;BME280;18457;52.432;16.914;2022-12-07T09:51:02;99702.92;;;3.24;97.26
31911;BME280;18457;52.432;16.914;2022-12-07T09:53:37;99695.16;;;3.08;98.41
31911;BME280;18457;52.432;16.914;2022-12-07T09:56:10;99694.02;;;3.20;98.24
31911;BME280;18457;52.432;16.914;2022-12-07T09:58:44;99693.87;;;3.17;99.01
31911;BME280;18457;52.432;16.914;2022-12-07T10:01:18;99687.94;;;3.24;98.59
31911;BME280;18457;52.432;16.914;2022-12-07T10:03:53;99679.71;;;3.27;98.22
31911;BME280;18457;52.432;16.914;2022-12-07T10:06:25;99680.52;;;3.14;98.93
31911;BME280;18457;52.432;16.914;2022-12-07T10:08:57;99673.54;;;3.14;99.57
31911;BME280;18457;52.432;16.914;2022-12-07T10:11:29;99671.70;;;3.22;98.94
31911;BME280;18457;52.432;16.914;2022-12-07T10:14:13;99673.73;;;3.12;99.11
31911;BME280;18457;52.432;16.914;2022-12-07T10:16:45;99670.29;;;2.90;99.89
31911;BME280;18457;52.432;16.914;2022-12-07T10:19:25;99665.20;;;3.07;99.98
31911;BME280;18457;52.432;16.914;2022-12-07T10:22:10;99664.70;;;3.00;99.91
31911;BME280;18457;52.432;16.914;2022-12-07T10:24:43;99660.71;;;3.11;99.74
31911;BME280;18457;52.432;16.914;2022-12-07T10:27:25;99662.31;;;3.10;99.48
31911;BME280;18457;52.432;16.914;2022-12-07T10:29:58;99660.15;;;2.86;100.00
31911;BME280;18457;52.432;16.914;2022-12-07T10:32:34;99660.41;;;3.03;99.99
31911;BME280;18457;52.432;16.914;2022-12-07T10:35:27;99659.48;;;3.09;99.77
31911;BME280;18457;52.432;16.914;2022-12-07T10:38:00;99658.05;;;3.10;99.11
31911;BME280;18457;52.432;16.914;2022-12-07T10:40:35;99658.08;;;3.05;99.42
31911;BME280;18457;52.432;16.914;2022-12-07T10:43:19;99658.27;;;3.02;99.21
31911;BME280;18457;52.432;16.914;2022-12-07T10:46:13;99651.37;;;2.93;100.00
31911;BME280;18457;52.432;16.914;2022-12-07T10:48:58;99651.36;;;2.95;100.00
31911;BME280;18457;52.432;16.914;2022-12-07T10:51:35;99642.06;;;2.99;100.00
31911;BME280;18457;52.432;16.914;2022-12-07T10:54:14;99640.77;;;3.05;99.98
31911;BME280;18457;52.432;16.914;2022-12-07T10:57:10;99634.89;;;3.04;100.00
31911;BME280;18457;52.432;16.914;2022-12-07T10:59:55;99628.62;;;2.80;100.00
31911;BME280;18457;52.432;16.914;2022-12-07T11:05:45;99622.34;;;2.86;100.00
31911;BME280;18457;52.432;16.914;2022-12-07T11:08:33;99619.09;;;2.93;100.00
31911;BME280;18457;52.432;16.914;2022-12-07T11:11:14;99617.06;;;3.01;100.00
31911;BME280;18457;52.432;16.914;2022-12-07T11:13:52;99607.25;;;3.04;100.00
31911;BME280;18457;52.432;16.914;2022-12-07T11:16:38;99602.86;;;3.16;100.00
31911;BME280;18457;52.432;16.914;2022-12-07T11:19:32;99598.87;;;3.02;100.00
31911;BME280;18457;52.432;16.914;2022-12-07T11:22:13;99593.61;;;3.13;100.00
31911;BME280;18457;52.432;16.914;2022-12-07T11:24:53;99598.94;;;2.92;100.00
31911;BME280;18457;52.432;16.914;2022-12-07T11:27:34;99593.73;;;2.97;100.00
31911;BME280;18457;52.432;16.914;2022-12-07T11:30:14;99594.42;;;3.03;100.00
31911;BME280;18457;52.432;16.914;2022-12-07T11:32:56;99591.80;;;2.91;100.00
31911;BME280;18457;52.432;16.914;2022-12-07T11:35:38;99587.21;;;2.86;100.00
31911;BME280;18457;52.432;16.914;2022-12-07T11:38:17;99587.69;;;2.95;100.00
31911;BME280;18457;52.432;16.914;2022-12-07T11:41:00;99588.29;;;2.86;100.00
31911;BME280;18457;52.432;16.914;2022-12-07T11:43:52;99579.70;;;2.89;100.00
31911;BME280;18457;52.432;16.914;2022-12-07T11:46:27;99580.11;;;2.81;100.00
31911;BME280;18457;52.432;16.914;2022-12-07T11:49:08;99579.17;;;2.88;100.00
31911;BME280;18457;52.432;16.914;2022-12-07T11:51:44;99577.69;;;2.95;100.00
31911;BME280;18457;52.432;16.914;2022-12-07T11:54:20;99574.02;;;2.85;100.00
31911;BME280;18457;52.432;16.914;2022-12-07T11:56:57;99570.52;;;3.02;100.00
31911;BME280;18457;52.432;16.914;2022-12-07T11:59:38;99570.84;;;3.07;100.00
31911;BME280;18457;52.432;16.914;2022-12-07T12:02:16;99563.16;;;3.04;100.00
31911;BME280;18457;52.432;16.914;2022-12-07T12:04:55;99560.95;;;3.14;100.00
31911;BME280;18457;52.432;16.914;2022-12-07T12:07:30;99562.83;;;3.02;100.00
31911;BME280;18457;52.432;16.914;2022-12-07T12:10:27;99560.98;;;3.13;100.00
31911;BME280;18457;52.432;16.914;2022-12-07T12:13:10;99560.13;;;3.05;100.00
31911;BME280;18457;52.432;16.914;2022-12-07T12:16:22;99558.77;;;2.96;100.00
31911;BME280;18457;52.432;16.914;2022-12-07T12:19:10;99552.63;;;3.06;100.00
31911;BME280;18457;52.432;16.914;2022-12-07T12:21:53;99555.50;;;3.04;100.00
31911;BME280;18457;52.432;16.914;2022-12-07T12:24:30;99552.02;;;2.94;100.00
31911;BME280;18457;52.432;16.914;2022-12-07T12:27:09;99554.35;;;2.92;100.00
31911;BME280;18457;52.432;16.914;2022-12-07T12:29:53;99546.45;;;3.00;100.00
31911;BME280;18457;52.432;16.914;2022-12-07T12:32:34;99543.19;;;3.06;100.00
31911;BME280;18457;52.432;16.914;2022-12-07T12:35:30;99542.02;;;3.15;100.00
31911;BME280;18457;52.432;16.914;2022-12-07T12:45:17;99538.11;;;3.35;100.00
31911;BME280;18457;52.432;16.914;2022-12-07T12:47:57;99540.09;;;3.33;100.00
31911;BME280;18457;52.432;16.914;2022-12-07T12:50:32;99540.48;;;3.28;100.00
31911;BME280;18457;52.432;16.914;2022-12-07T12:53:22;99537.37;;;3.39;100.00
31911;BME280;18457;52.432;16.914;2022-12-07T12:59:24;99535.05;;;3.38;100.00
31911;BME280;18457;52.432;16.914;2022-12-07T13:01:58;99531.73;;;3.30;100.00
31911;BME280;18457;52.432;16.914;2022-12-07T13:04:53;99535.64;;;3.31;100.00
31911;BME280;18457;52.432;16.914;2022-12-07T13:07:57;99543.04;;;3.23;100.00
31911;BME280;18457;52.432;16.914;2022-12-07T13:10:42;99548.08;;;3.18;100.00
31911;BME280;18457;52.432;16.914;2022-12-07T13:13:33;99552.75;;;3.12;100.00
31911;BME280;18457;52.432;16.914;2022-12-07T13:22:45;99560.98;;;3.09;100.00
31911;BME280;18457;52.432;16.914;2022-12-07T13:25:27;99563.92;;;2.99;100.00
31911;BME280;18457;52.432;16.914;2022-12-07T13:28:11;99564.82;;;2.98;100.00
31911;BME280;18457;52.432;16.914;2022-12-07T13:30:53;99562.99;;;3.05;100.00
31911;BME280;18457;52.432;16.914;2022-12-07T13:33:29;99568.40;;;2.98;100.00
31911;BME280;18457;52.432;16.914;2022-12-07T13:36:01;99568.75;;;2.98;100.00
31911;BME280;18457;52.432;16.914;2022-12-07T13:38:35;99571.60;;;2.99;100.00
31911;BME280;18457;52.432;16.914;2022-12-07T13:41:15;99575.26;;;2.86;100.00
31911;BME280;18457;52.432;16.914;2022-12-07T13:44:02;99584.23;;;2.79;100.00
31911;BME280;18457;52.432;16.914;2022-12-07T13:46:46;99586.13;;;2.87;99.61
31911;BME280;18457;52.432;16.914;2022-12-07T13:49:24;99585.77;;;2.87;98.99
31911;BME280;18457;52.432;16.914;2022-12-07T13:52:13;99583.77;;;2.93;98.81
31911;BME280;18457;52.432;16.914;2022-12-07T13:54:48;99588.59;;;2.92;99.22
31911;BME280;18457;52.432;16.914;2022-12-07T13:57:20;99591.80;;;2.95;99.26
31911;BME280;18457;52.432;16.914;2022-12-07T13:59:52;99598.38;;;2.96;99.86